createdAt,value
2018-04-26T00:00:43.429Z,26.90
2018-04-26T00:03:13.242Z,26.90
2018-04-26T00:05:44.059Z,25.70
2018-04-26T00:08:13.960Z,25.70
2018-04-26T00:10:43.740Z,26.20
2018-04-26T00:13:13.643Z,27.20
2018-04-26T00:15:43.497Z,27.20
2018-04-26T00:18:13.552Z,25.60
2018-04-26T00:20:43.444Z,27.50
2018-04-26T00:23:13.548Z,26.20
2018-04-26T00:25:43.378Z,26.40
2018-04-26T00:28:13.176Z,26.00
2018-04-26T00:30:43.021Z,27.70
2018-04-26T00:33:12.867Z,27.10
2018-04-26T00:35:42.625Z,27.30
2018-04-26T00:38:12.400Z,27.80
2018-04-26T00:40:42.239Z,28.80
2018-04-26T00:43:12.063Z,29.60
2018-04-26T00:45:41.942Z,28.40
2018-04-26T00:48:11.910Z,28.30
2018-04-26T00:50:42.561Z,28.20
2018-04-26T00:53:14.660Z,28.10
2018-04-26T00:55:46.142Z,28.50
2018-04-26T00:58:16.755Z,28.00
2018-04-26T01:00:46.540Z,27.90
2018-04-26T01:03:16.346Z,27.50
2018-04-26T01:05:46.942Z,27.10
2018-04-26T01:08:17.421Z,28.60
2018-04-26T01:10:49.424Z,29.30
2018-04-26T01:13:21.048Z,27.60
2018-04-26T01:15:51.010Z,26.30
2018-04-26T01:18:25.309Z,26.10
2018-04-26T01:20:55.861Z,26.50
2018-04-26T01:23:25.716Z,25.20
2018-04-26T01:25:55.608Z,25.30
2018-04-26T01:28:25.532Z,25.00
2018-04-26T01:30:55.369Z,25.00
2018-04-26T01:33:25.198Z,25.20
2018-04-26T01:35:54.978Z,24.40
2018-04-26T01:38:24.771Z,25.00
2018-04-26T01:40:54.682Z,25.30
2018-04-26T01:43:24.437Z,25.40
2018-04-26T01:45:54.572Z,24.60
2018-04-26T01:48:24.346Z,24.80
2018-04-26T01:50:54.119Z,26.80
2018-04-26T01:53:25.773Z,28.00
2018-04-26T01:55:55.638Z,28.00
2018-04-26T01:58:25.414Z,28.80
2018-04-26T02:00:55.175Z,28.50
2018-04-26T02:03:25.163Z,30.30
2018-04-26T02:05:54.936Z,30.90
2018-04-26T02:08:24.743Z,32.20
2018-04-26T02:10:54.641Z,34.30
2018-04-26T02:13:25.728Z,33.60
2018-04-26T02:15:57.865Z,34.60
2018-04-26T02:18:29.018Z,34.60
2018-04-26T02:21:01.815Z,36.10
2018-04-26T02:23:32.710Z,36.30
2018-04-26T02:26:02.642Z,36.50
2018-04-26T02:28:32.695Z,37.40
2018-04-26T02:31:04.245Z,39.20
2018-04-26T02:33:34.928Z,38.60
2018-04-26T02:36:05.924Z,40.80
2018-04-26T02:38:35.711Z,42.20
2018-04-26T02:41:07.635Z,41.40
2018-04-26T02:43:38.001Z,42.80
2018-04-26T02:46:07.866Z,42.50
2018-04-26T02:48:37.629Z,40.70
2018-04-26T02:51:07.568Z,39.50
2018-04-26T02:53:37.349Z,39.50
2018-04-26T02:56:07.698Z,40.10
2018-04-26T02:58:37.613Z,40.90
2018-04-26T03:01:07.800Z,40.40
2018-04-26T03:03:37.563Z,41.20
2018-04-26T03:06:07.400Z,41.50
2018-04-26T03:08:37.322Z,41.10
2018-04-26T03:11:07.143Z,43.90
2018-04-26T03:13:36.901Z,47.40
2018-04-26T03:16:06.764Z,46.50
2018-04-26T03:18:36.602Z,47.50
2018-04-26T03:21:06.669Z,48.30
2018-04-26T03:23:36.595Z,48.00
2018-04-26T03:26:06.387Z,48.50
2018-04-26T03:28:36.144Z,48.70
2018-04-26T03:31:05.998Z,49.50
2018-04-26T03:33:36.491Z,50.40
2018-04-26T03:36:06.407Z,50.20
2018-04-26T03:38:36.818Z,51.30
2018-04-26T03:41:06.760Z,52.20
2018-04-26T03:43:37.540Z,50.80
2018-04-26T03:46:08.490Z,52.00
2018-04-26T03:48:38.364Z,53.00
2018-04-26T03:51:10.070Z,52.00
2018-04-26T03:53:39.960Z,52.00
2018-04-26T03:56:09.895Z,54.60
2018-04-26T03:58:39.761Z,53.30
2018-04-26T04:01:20.762Z,53.70
2018-04-26T04:04:01.774Z,53.30
2018-04-26T04:06:31.886Z,55.00
2018-04-26T04:09:01.908Z,54.30
2018-04-26T04:11:31.754Z,55.40
2018-04-26T04:14:01.627Z,54.50
2018-04-26T04:16:31.470Z,55.20
2018-04-26T04:19:01.400Z,55.90
2018-04-26T04:21:31.172Z,55.90
2018-04-26T04:24:00.963Z,55.10
2018-04-26T04:26:30.913Z,52.70
2018-04-26T04:29:00.723Z,54.30
2018-04-26T04:31:32.187Z,54.80
2018-04-26T04:34:01.969Z,54.20
2018-04-26T04:36:31.791Z,54.70
2018-04-26T04:39:02.628Z,55.00
2018-04-26T04:41:32.484Z,54.90
2018-04-26T04:44:02.451Z,56.20
2018-04-26T04:46:32.403Z,57.00
2018-04-26T04:49:02.154Z,56.60
2018-04-26T04:51:32.041Z,56.60
2018-04-26T04:54:01.995Z,57.40
2018-04-26T04:56:31.828Z,56.90
2018-04-26T04:59:01.645Z,57.70
2018-04-26T05:01:31.564Z,57.90
2018-04-26T05:04:01.300Z,57.00
2018-04-26T05:06:31.199Z,56.50
2018-04-26T05:09:01.139Z,56.70
2018-04-26T05:11:30.993Z,57.20
2018-04-26T05:14:00.946Z,56.00
2018-04-26T05:16:30.753Z,56.00
2018-04-26T05:19:00.614Z,55.40
2018-04-26T05:21:30.447Z,56.80
2018-04-26T05:24:00.274Z,54.40
2018-04-26T05:26:30.126Z,57.10
2018-04-26T05:28:59.957Z,56.40
2018-04-26T05:31:29.805Z,56.30
2018-04-26T05:33:59.585Z,56.60
2018-04-26T05:36:30.182Z,57.00
2018-04-26T05:39:00.157Z,57.00
2018-04-26T05:41:30.077Z,57.20
2018-04-26T05:44:00.008Z,60.60
2018-04-26T05:46:29.802Z,58.70
2018-04-26T05:48:59.656Z,61.10
2018-04-26T05:51:29.768Z,58.40
2018-04-26T05:53:59.550Z,59.10
2018-04-26T05:56:29.366Z,60.50
2018-04-26T05:58:59.176Z,59.30
2018-04-26T06:01:29.192Z,59.40
2018-04-26T06:04:01.332Z,61.50
2018-04-26T06:06:32.213Z,58.80
2018-04-26T06:09:02.148Z,58.70
2018-04-26T06:11:31.981Z,58.60
2018-04-26T06:14:01.792Z,57.90
2018-04-26T06:16:31.672Z,58.10
2018-04-26T06:19:01.821Z,57.80
2018-04-26T06:21:32.001Z,58.30
2018-04-26T06:24:01.990Z,59.90
2018-04-26T06:26:31.927Z,58.40
2018-04-26T06:29:01.840Z,60.80
2018-04-26T06:31:31.726Z,59.10
2018-04-26T06:34:02.378Z,58.70
2018-04-26T06:36:32.302Z,58.70
2018-04-26T06:39:02.249Z,58.40
2018-04-26T06:41:32.144Z,57.50
2018-04-26T06:44:02.403Z,57.50
2018-04-26T06:46:32.443Z,57.50
2018-04-26T06:49:03.010Z,57.60
2018-04-26T06:51:32.758Z,57.60
2018-04-26T06:54:02.601Z,57.40
2018-04-26T06:56:32.402Z,57.10
2018-04-26T06:59:02.323Z,58.70
2018-04-26T07:01:32.622Z,56.70
2018-04-26T07:04:02.476Z,57.30
2018-04-26T07:06:33.013Z,57.30
2018-04-26T07:09:02.872Z,57.20
2018-04-26T07:11:32.793Z,58.00
2018-04-26T07:14:02.871Z,57.80
2018-04-26T07:16:32.960Z,57.50
2018-04-26T07:19:02.852Z,58.50
2018-04-26T07:21:32.599Z,57.90
2018-04-26T07:24:02.445Z,57.60
2018-04-26T07:26:32.666Z,57.50
2018-04-26T07:29:03.578Z,57.50
2018-04-26T07:31:33.555Z,58.30
2018-04-26T07:34:03.470Z,57.80
2018-04-26T07:36:33.205Z,57.90
2018-04-26T07:39:03.772Z,58.30
2018-04-26T07:41:33.645Z,58.30
2018-04-26T07:44:03.508Z,58.40
2018-04-26T07:46:33.521Z,59.10
2018-04-26T07:49:03.417Z,58.30
2018-04-26T07:51:33.333Z,58.20
2018-04-26T07:54:03.162Z,58.50
2018-04-26T07:56:32.929Z,58.50
2018-04-26T07:59:03.568Z,58.90
2018-04-26T08:01:33.518Z,58.80
2018-04-26T08:04:03.448Z,58.60
2018-04-26T08:06:33.519Z,58.70
2018-04-26T08:09:03.374Z,60.00
2018-04-26T08:11:33.177Z,59.70
2018-04-26T08:14:03.312Z,60.10
2018-04-26T08:16:34.330Z,60.40
2018-04-26T08:19:04.220Z,60.70
2018-04-26T08:21:37.123Z,61.60
2018-04-26T08:24:06.864Z,60.60
2018-04-26T08:26:36.703Z,60.60
2018-04-26T08:29:06.526Z,61.10
2018-04-26T08:31:36.441Z,62.90
2018-04-26T08:34:07.225Z,62.80
2018-04-26T08:36:38.131Z,62.90
2018-04-26T08:39:08.019Z,64.10
2018-04-26T08:41:38.762Z,62.20
2018-04-26T08:44:08.699Z,62.00
2018-04-26T08:46:39.494Z,62.00
2018-04-26T08:49:09.434Z,62.40
2018-04-26T08:51:39.246Z,62.10
2018-04-26T08:54:09.692Z,62.10
2018-04-26T08:56:39.575Z,61.90
2018-04-26T08:59:09.502Z,62.10
2018-04-26T09:01:39.407Z,62.50
2018-04-26T09:04:09.464Z,62.90
2018-04-26T09:06:39.319Z,62.10
2018-04-26T09:09:09.374Z,63.40
2018-04-26T09:11:39.342Z,62.50
2018-04-26T09:14:09.452Z,62.50
2018-04-26T09:16:39.394Z,64.10
2018-04-26T09:19:09.638Z,66.00
2018-04-26T09:21:39.360Z,65.60
2018-04-26T09:24:09.064Z,64.40
2018-04-26T09:26:38.857Z,64.10
2018-04-26T09:29:08.659Z,66.20
2018-04-26T09:31:38.627Z,66.50
2018-04-26T09:34:08.412Z,64.50
2018-04-26T09:36:40.183Z,64.10
2018-04-26T09:39:10.156Z,64.10
2018-04-26T09:41:39.944Z,64.70
2018-04-26T09:44:09.903Z,64.30
2018-04-26T09:46:39.744Z,64.90
2018-04-26T09:49:09.534Z,65.40
2018-04-26T09:51:39.383Z,65.50
2018-04-26T09:54:09.170Z,64.30
2018-04-26T09:56:39.109Z,65.30
2018-04-26T09:59:10.342Z,64.90
2018-04-26T10:01:40.469Z,64.80
2018-04-26T10:04:16.740Z,65.70
2018-04-26T10:06:51.626Z,65.60
2018-04-26T10:09:21.713Z,64.80
2018-04-26T10:11:51.672Z,64.60
2018-04-26T10:14:22.329Z,64.60
2018-04-26T10:16:52.740Z,65.50
2018-04-26T10:19:23.322Z,66.20
2018-04-26T10:21:53.073Z,66.10
2018-04-26T10:24:22.842Z,66.40
2018-04-26T10:26:52.637Z,66.70
2018-04-26T10:29:23.865Z,67.00
2018-04-26T10:31:53.778Z,69.40
2018-04-26T10:34:24.085Z,66.70
2018-04-26T10:36:53.921Z,67.30
2018-04-26T10:39:23.715Z,67.20
2018-04-26T10:41:53.942Z,67.60
2018-04-26T10:44:23.905Z,67.80
2018-04-26T10:46:54.679Z,67.70
2018-04-26T10:49:24.429Z,67.70
2018-04-26T10:51:54.277Z,67.80
2018-04-26T10:54:24.055Z,68.00
2018-04-26T10:56:54.052Z,68.20
2018-04-26T10:59:24.289Z,68.70
2018-04-26T11:01:54.232Z,69.60
2018-04-26T11:04:24.742Z,68.50
2018-04-26T11:06:56.735Z,67.70
2018-04-26T11:09:29.069Z,67.70
2018-04-26T11:12:00.824Z,68.20
2018-04-26T11:14:31.387Z,68.00
2018-04-26T11:17:01.192Z,68.60
2018-04-26T11:19:31.016Z,68.50
2018-04-26T11:22:01.053Z,68.10
2018-04-26T11:24:30.817Z,68.90
2018-04-26T11:27:00.915Z,70.20
2018-04-26T11:29:30.745Z,69.00
2018-04-26T11:32:00.962Z,70.10
2018-04-26T11:34:31.231Z,70.10
2018-04-26T11:37:03.463Z,71.80
2018-04-26T11:39:33.219Z,69.90
2018-04-26T11:42:02.971Z,71.20
2018-04-26T11:44:34.760Z,70.40
2018-04-26T11:47:04.771Z,70.70
2018-04-26T11:49:34.971Z,71.20
2018-04-26T11:52:05.533Z,71.00
2018-04-26T11:54:36.144Z,71.10
2018-04-26T11:57:05.917Z,72.10
2018-04-26T11:59:35.839Z,71.50
2018-04-26T12:02:05.897Z,71.60
2018-04-26T12:04:35.852Z,71.00
2018-04-26T12:07:05.832Z,72.80
2018-04-26T12:09:37.711Z,70.80
2018-04-26T12:12:07.584Z,71.60
2018-04-26T12:14:37.487Z,71.80
2018-04-26T12:17:07.539Z,71.30
2018-04-26T12:19:41.651Z,70.80
2018-04-26T12:22:11.423Z,70.80
2018-04-26T12:24:41.247Z,70.60
2018-04-26T12:27:11.222Z,70.50
2018-04-26T12:29:41.106Z,69.20
2018-04-26T12:32:11.058Z,69.80
2018-04-26T12:34:40.973Z,72.60
2018-04-26T12:37:10.734Z,71.80
2018-04-26T12:39:40.558Z,70.20
2018-04-26T12:42:10.684Z,71.70
2018-04-26T12:44:40.655Z,71.70
2018-04-26T12:47:10.442Z,71.50
2018-04-26T12:49:40.397Z,71.10
2018-04-26T12:52:10.190Z,71.20
2018-04-26T12:54:40.037Z,72.50
2018-04-26T12:57:10.482Z,71.80
2018-04-26T12:59:41.109Z,72.40
2018-04-26T13:02:11.234Z,72.20
2018-04-26T13:04:41.042Z,72.80
2018-04-26T13:07:10.830Z,72.60
2018-04-26T13:09:40.698Z,74.30
2018-04-26T13:12:10.691Z,72.80
2018-04-26T13:14:40.579Z,72.40
2018-04-26T13:17:10.342Z,73.10
2018-04-26T13:19:40.151Z,74.50
2018-04-26T13:22:10.770Z,73.40
2018-04-26T13:24:40.664Z,73.30
2018-04-26T13:27:10.457Z,73.70
2018-04-26T13:29:41.044Z,73.40
2018-04-26T13:32:10.900Z,73.40
2018-04-26T13:34:40.719Z,73.80
2018-04-26T13:37:10.723Z,74.30
2018-04-26T13:39:40.518Z,73.80
2018-04-26T13:42:10.428Z,73.60
2018-04-26T13:44:40.282Z,75.00
2018-04-26T13:47:10.221Z,73.70
2018-04-26T13:49:40.863Z,73.60
2018-04-26T13:52:10.748Z,73.60
2018-04-26T13:54:40.565Z,73.20
2018-04-26T13:57:10.420Z,72.90
2018-04-26T13:59:40.161Z,72.80
2018-04-26T14:02:10.428Z,72.80
2018-04-26T14:04:40.298Z,72.80
2018-04-26T14:07:10.083Z,72.80
2018-04-26T14:09:39.839Z,72.20
2018-04-26T14:12:09.717Z,73.20
2018-04-26T14:14:39.723Z,72.90
2018-04-26T14:17:09.576Z,72.20
2018-04-26T14:19:39.638Z,70.30
2018-04-26T14:22:09.457Z,71.20
2018-04-26T14:24:39.266Z,71.80
2018-04-26T14:27:09.167Z,68.40
2018-04-26T14:29:38.976Z,65.60
2018-04-26T14:32:08.845Z,64.60
2018-04-26T14:34:38.913Z,64.10
2018-04-26T14:37:09.949Z,63.00
2018-04-26T14:39:39.977Z,61.90
2018-04-26T14:42:09.776Z,63.50
2018-04-26T14:44:40.996Z,64.40
2018-04-26T14:47:10.888Z,64.90
2018-04-26T14:49:40.662Z,66.80
2018-04-26T14:52:11.461Z,66.70
2018-04-26T14:54:41.259Z,66.60
2018-04-26T14:57:11.240Z,66.10
2018-04-26T14:59:41.106Z,63.80
2018-04-26T15:02:10.982Z,65.40
2018-04-26T15:04:40.793Z,63.30
2018-04-26T15:07:10.600Z,61.80
2018-04-26T15:09:40.579Z,62.20
2018-04-26T15:12:10.274Z,59.10
2018-04-26T15:14:40.107Z,59.20
2018-04-26T15:17:09.903Z,56.80
2018-04-26T15:19:39.642Z,56.70
2018-04-26T15:22:09.424Z,56.10
2018-04-26T15:24:39.335Z,56.00
2018-04-26T15:27:09.154Z,55.30
2018-04-26T15:29:38.901Z,55.10
2018-04-26T15:32:08.687Z,59.70
2018-04-26T15:34:38.535Z,56.60
2018-04-26T15:37:08.350Z,58.40
2018-04-26T15:39:38.169Z,55.30
2018-04-26T15:42:08.053Z,54.90
2018-04-26T15:44:37.872Z,57.40
2018-04-26T15:47:07.904Z,55.40
2018-04-26T15:49:37.996Z,54.10
2018-04-26T15:52:07.853Z,56.60
2018-04-26T15:54:39.002Z,56.90
2018-04-26T15:57:25.331Z,60.50
2018-04-26T16:00:06.475Z,56.90
2018-04-26T16:03:03.760Z,54.00
2018-04-26T16:05:44.576Z,54.40
2018-04-26T16:08:30.893Z,53.50
2018-04-26T16:11:17.211Z,51.10
2018-04-26T16:14:03.445Z,52.50
2018-04-26T16:16:49.923Z,52.60
2018-04-26T16:19:36.948Z,56.20
2018-04-26T16:22:23.127Z,56.20
2018-04-26T16:25:04.074Z,52.90
2018-04-26T16:27:45.262Z,52.50
2018-04-26T16:30:26.252Z,52.80
2018-04-26T16:33:07.278Z,52.50
2018-04-26T16:35:49.013Z,53.40
2018-04-26T16:38:29.946Z,53.40
2018-04-26T16:40:59.987Z,52.90
2018-04-26T16:43:29.998Z,52.30
2018-04-26T16:46:00.100Z,53.00
2018-04-26T16:48:30.447Z,53.00
2018-04-26T16:51:00.264Z,55.00
2018-04-26T16:53:30.179Z,51.10
2018-04-26T16:56:00.013Z,49.00
2018-04-26T16:58:29.939Z,49.00
2018-04-26T17:00:59.847Z,49.70
2018-04-26T17:03:30.119Z,49.70
2018-04-26T17:06:00.012Z,47.80
2018-04-26T17:08:30.673Z,48.00
2018-04-26T17:11:00.466Z,47.00
2018-04-26T17:13:30.440Z,47.80
2018-04-26T17:16:00.313Z,48.30
2018-04-26T17:18:32.533Z,46.80
2018-04-26T17:21:03.593Z,47.30
2018-04-26T17:23:34.281Z,46.50
2018-04-26T17:26:05.283Z,47.50
2018-04-26T17:28:36.894Z,45.60
2018-04-26T17:31:06.835Z,43.80
2018-04-26T17:33:36.908Z,43.70
2018-04-26T17:36:06.942Z,44.80
2018-04-26T17:38:36.896Z,43.40
2018-04-26T17:41:06.964Z,43.10
2018-04-26T17:43:37.358Z,45.40
2018-04-26T17:46:07.845Z,44.10
2018-04-26T17:48:37.788Z,43.40
2018-04-26T17:51:07.776Z,43.10
2018-04-26T17:53:37.628Z,47.30
2018-04-26T17:56:07.747Z,44.60
2018-04-26T17:58:37.783Z,44.10
2018-04-26T18:01:08.118Z,43.20
2018-04-26T18:03:38.060Z,42.80
2018-04-26T18:06:07.980Z,42.40
2018-04-26T18:08:37.909Z,42.00
2018-04-26T18:11:08.343Z,41.20
2018-04-26T18:13:38.138Z,40.80
2018-04-26T18:16:08.089Z,41.10
2018-04-26T18:18:40.496Z,41.90
2018-04-26T18:21:10.502Z,39.60
2018-04-26T18:23:41.087Z,39.10
2018-04-26T18:26:10.954Z,39.10
2018-04-26T18:28:40.780Z,39.40
2018-04-26T18:31:10.722Z,37.90
2018-04-26T18:33:41.696Z,38.60
2018-04-26T18:36:12.297Z,38.40
2018-04-26T18:38:42.151Z,38.30
2018-04-26T18:41:12.820Z,36.90
2018-04-26T18:43:42.757Z,36.90
2018-04-26T18:46:12.793Z,38.30
2018-04-26T18:48:43.520Z,42.30
2018-04-26T18:51:13.477Z,42.20
2018-04-26T18:53:43.442Z,40.90
2018-04-26T18:56:13.697Z,42.80
2018-04-26T18:58:43.631Z,42.60
2018-04-26T19:01:13.584Z,43.00
2018-04-26T19:03:43.667Z,42.50
2018-04-26T19:06:13.640Z,42.50
2018-04-26T19:08:43.804Z,41.70
2018-04-26T19:11:13.813Z,42.10
2018-04-26T19:13:43.641Z,42.00
2018-04-26T19:16:13.678Z,42.40
2018-04-26T19:18:43.713Z,43.20
2018-04-26T19:21:13.877Z,41.50
2018-04-26T19:23:43.778Z,42.50
2018-04-26T19:26:13.967Z,42.50
2018-04-26T19:28:44.180Z,41.20
2018-04-26T19:31:14.315Z,41.70
2018-04-26T19:33:44.243Z,41.10
2018-04-26T19:36:14.401Z,40.00
2018-04-26T19:38:44.529Z,40.20
2018-04-26T19:41:14.604Z,40.10
2018-04-26T19:43:44.394Z,39.20
2018-04-26T19:46:14.440Z,41.10
2018-04-26T19:48:44.263Z,40.90
2018-04-26T19:51:14.511Z,41.50
2018-04-26T19:53:46.268Z,40.80
2018-04-26T19:56:16.358Z,41.30
2018-04-26T19:58:46.209Z,41.50
2018-04-26T20:01:16.117Z,41.10
2018-04-26T20:03:46.114Z,40.90
2018-04-26T20:06:15.878Z,41.00
2018-04-26T20:08:45.770Z,39.70
2018-04-26T20:11:15.533Z,38.70
2018-04-26T20:13:46.160Z,37.30
2018-04-26T20:16:16.040Z,37.30
2018-04-26T20:18:45.907Z,38.70
2018-04-26T20:21:15.833Z,38.70
2018-04-26T20:23:45.732Z,37.40
2018-04-26T20:26:15.533Z,35.50
2018-04-26T20:28:45.384Z,37.00
2018-04-26T20:31:15.238Z,35.60
2018-04-26T20:33:45.299Z,37.20
2018-04-26T20:36:15.107Z,37.60
2018-04-26T20:38:45.018Z,35.30
2018-04-26T20:41:15.862Z,35.20
2018-04-26T20:43:45.681Z,35.20
2018-04-26T20:46:15.433Z,37.40
2018-04-26T20:48:45.223Z,34.80
2018-04-26T20:51:15.062Z,34.10
2018-04-26T20:53:44.881Z,35.20
2018-04-26T20:56:14.677Z,34.30
2018-04-26T20:58:45.273Z,33.30
2018-04-26T21:01:15.176Z,34.00
2018-04-26T21:03:44.947Z,34.50
2018-04-26T21:06:14.745Z,29.40
2018-04-26T21:08:44.525Z,32.50
2018-04-26T21:11:14.267Z,31.30
2018-04-26T21:13:47.299Z,34.40
2018-04-26T21:16:17.106Z,31.90
2018-04-26T21:18:46.995Z,32.30
2018-04-26T21:21:16.792Z,31.60
2018-04-26T21:23:46.648Z,29.60
2018-04-26T21:26:16.398Z,27.50
2018-04-26T21:28:46.126Z,28.50
2018-04-26T21:31:16.348Z,29.00
2018-04-26T21:33:46.152Z,28.70
2018-04-26T21:36:18.000Z,30.70
2018-04-26T21:38:48.822Z,27.40
2018-04-26T21:41:18.621Z,27.40
2018-04-26T21:43:48.446Z,27.00
2018-04-26T21:46:18.924Z,27.30
2018-04-26T21:48:48.895Z,26.80
2018-04-26T21:51:24.091Z,26.30
2018-04-26T21:53:59.152Z,26.70
2018-04-26T21:56:34.301Z,27.90
2018-04-26T21:59:09.283Z,25.50
2018-04-26T22:01:44.363Z,25.20
2018-04-26T22:04:18.086Z,27.40
2018-04-26T22:06:47.997Z,27.90
2018-04-26T22:09:17.819Z,27.10
2018-04-26T22:11:47.660Z,27.30
2018-04-26T22:14:17.591Z,28.50
2018-04-26T22:16:47.426Z,28.80
2018-04-26T22:19:17.228Z,27.20
2018-04-26T22:21:47.169Z,26.50
2018-04-26T22:24:16.913Z,25.90
2018-04-26T22:26:46.723Z,27.10
2018-04-26T22:29:16.575Z,26.10
2018-04-26T22:31:46.403Z,28.60
2018-04-26T22:34:16.264Z,29.30
2018-04-26T22:36:46.104Z,26.70
2018-04-26T22:39:15.944Z,25.50
2018-04-26T22:41:45.892Z,25.40
2018-04-26T22:44:15.735Z,25.20
2018-04-26T22:46:45.558Z,25.00
2018-04-26T22:49:15.303Z,28.00
2018-04-26T22:51:45.220Z,27.20
2018-04-26T22:54:17.823Z,26.50
2018-04-26T22:56:49.339Z,26.80
2018-04-26T22:59:21.299Z,24.90
2018-04-26T23:01:51.273Z,24.90
2018-04-26T23:04:21.170Z,26.20
2018-04-26T23:06:52.083Z,24.40
2018-04-26T23:09:22.323Z,25.10
2018-04-26T23:11:52.346Z,24.50
2018-04-26T23:14:22.195Z,24.20
2018-04-26T23:16:51.998Z,24.10
2018-04-26T23:19:21.791Z,25.20
2018-04-26T23:21:51.628Z,24.90
2018-04-26T23:24:21.438Z,25.00
2018-04-26T23:26:51.927Z,24.50
2018-04-26T23:29:21.719Z,24.50
2018-04-26T23:31:51.980Z,24.70
2018-04-26T23:34:22.806Z,24.90
2018-04-26T23:36:52.669Z,24.80
2018-04-26T23:39:23.132Z,23.70
2018-04-26T23:41:52.933Z,24.40
2018-04-26T23:44:22.825Z,24.60
2018-04-26T23:46:52.690Z,22.80
2018-04-26T23:49:23.499Z,24.80
2018-04-26T23:51:53.337Z,24.90
2018-04-26T23:54:23.971Z,24.90
2018-04-26T23:56:54.162Z,24.80
2018-04-26T23:59:23.964Z,25.30
